Time;durP1;ratioP1;P1;durP2;ratioP2;P2;SDS_P1;SDS_P2;PMS_P1;PMS_P2;Temp;Humidity;BMP_temperature;BMP_pressure;BME280_temperature;BME280_humidity;BME280_pressure;Samples;Min_cycle;Max_cycle;Signal;HPM_P1;HPM_P2
2022/05/02 00:00:39;;;;;;;14.05;4.13;;;;;;;21.44;24.89;99612.72;5098218;28;20132;-65
2022/05/02 00:03:05;;;;;;;7.03;3.53;;;;;;;21.54;24.65;99613.25;5106734;28;20027;-64
2022/05/02 00:05:30;;;;;;;8.18;4.13;;;;;;;21.61;24.74;99599.91;5106649;28;20043;-65
2022/05/02 00:07:56;;;;;;;8.95;4.60;;;;;;;21.70;24.59;99611.34;5092192;28;20032;-65
2022/05/02 00:10:22;;;;;;;8.68;3.75;;;;;;;21.73;24.49;99610.97;5092408;28;20059;-65
2022/05/02 00:12:47;;;;;;;6.78;4.05;;;;;;;21.75;24.67;99603.53;5095246;28;20036;-65
2022/05/02 00:15:13;;;;;;;6.93;3.50;;;;;;;21.79;24.67;99612.91;5091799;28;20071;-64
2022/05/02 00:17:56;;;;;;;7.00;3.65;;;;;;;21.78;24.76;99606.66;5091953;28;20028;-64
2022/05/02 00:20:36;;;;;;;6.63;3.25;;;;;;;21.80;24.78;99611.88;5091826;28;20038;-65
2022/05/02 00:23:11;;;;;;;5.30;3.17;;;;;;;21.79;24.70;99602.13;5093061;28;20036;-65
2022/05/02 00:25:37;;;;;;;8.48;4.00;;;;;;;21.78;24.78;99601.28;5095637;28;20036;-64
2022/05/02 00:28:04;;;;;;;6.13;3.90;;;;;;;21.76;24.72;99597.13;5097832;28;20035;-63
2022/05/02 00:30:30;;;;;;;7.00;4.03;;;;;;;21.78;24.63;99595.09;5095214;28;20048;-63
2022/05/02 00:32:57;;;;;;;5.95;3.60;;;;;;;21.79;24.72;99599.44;5095742;28;20062;-64
2022/05/02 00:35:23;;;;;;;8.55;3.60;;;;;;;21.79;24.71;99596.75;5105903;28;20050;-63
2022/05/02 00:37:49;;;;;;;6.03;3.60;;;;;;;21.79;24.66;99592.19;5114766;28;20058;-65
2022/05/02 00:40:16;;;;;;;5.63;3.17;;;;;;;21.80;24.88;99591.16;5114486;28;20063;-65
2022/05/02 00:42:44;;;;;;;13.70;3.85;;;;;;;21.80;24.75;99593.03;5102773;28;20553;-65
2022/05/02 00:45:11;;;;;;;6.43;3.78;;;;;;;21.80;24.91;99587.66;5094983;28;20077;-65
2022/05/02 00:47:37;;;;;;;8.27;3.38;;;;;;;21.78;25.08;99587.00;5095485;28;20028;-65
2022/05/02 00:50:04;;;;;;;3.92;3.00;;;;;;;21.77;24.95;99586.16;5095875;28;20403;-65
2022/05/02 00:52:30;;;;;;;8.00;3.88;;;;;;;21.76;24.89;99594.44;5095299;28;20114;-65
2022/05/02 00:54:56;;;;;;;6.55;4.10;;;;;;;21.75;24.96;99595.47;5096612;28;20498;-64
2022/05/02 00:57:22;;;;;;;8.23;3.08;;;;;;;21.73;25.08;99587.59;5094585;28;20688;-64
2022/05/02 00:59:48;;;;;;;9.63;4.25;;;;;;;21.70;25.07;99579.03;5095156;28;20483;-65
2022/05/02 01:02:15;;;;;;;4.43;3.10;;;;;;;21.70;25.00;99587.97;5095006;28;20035;-64
2022/05/02 01:04:42;;;;;;;5.60;3.53;;;;;;;21.71;25.20;99589.63;5094862;28;20040;-64
2022/05/02 01:07:08;;;;;;;5.78;3.65;;;;;;;21.71;25.07;99588.78;5095332;28;20093;-65
2022/05/02 01:09:34;;;;;;;4.85;3.58;;;;;;;21.70;25.17;99587.97;5095284;28;20032;-65
2022/05/02 01:12:00;;;;;;;6.50;3.65;;;;;;;21.69;25.26;99585.47;5095348;28;20486;-65
2022/05/02 01:14:26;;;;;;;4.95;3.38;;;;;;;21.69;25.10;99583.59;5108810;28;20034;-64
2022/05/02 01:16:51;;;;;;;5.72;3.70;;;;;;;21.67;25.01;99582.97;5115672;28;20051;-65
2022/05/02 01:19:17;;;;;;;11.50;3.63;;;;;;;21.68;25.29;99583.81;5115716;28;20038;-65
2022/05/02 01:21:45;;;;;;;5.82;3.20;;;;;;;21.67;25.13;99579.44;5116034;28;20467;-64
2022/05/02 01:24:11;;;;;;;7.20;3.92;;;;;;;21.63;25.20;99581.66;5115589;28;20049;-63
2022/05/02 01:26:37;;;;;;;5.90;3.22;;;;;;;21.63;25.24;99585.22;5115549;28;20473;-65
2022/05/02 01:29:03;;;;;;;5.18;3.28;;;;;;;21.63;25.24;99585.22;5114029;28;20032;-65
2022/05/02 01:31:29;;;;;;;8.00;4.00;;;;;;;21.64;24.92;99594.97;5115572;28;20039;-65
2022/05/02 01:33:55;;;;;;;7.03;3.90;;;;;;;21.64;25.31;99586.03;5115637;28;20490;-65
2022/05/02 01:36:22;;;;;;;10.23;3.40;;;;;;;21.63;25.25;99579.81;5114780;28;20031;-62
2022/05/02 01:38:48;;;;;;;6.40;3.75;;;;;;;21.63;25.38;99589.75;5115211;28;20031;-62
2022/05/02 01:41:14;;;;;;;10.27;3.60;;;;;;;21.62;25.37;99588.94;5115112;28;20034;-62
2022/05/02 01:43:40;;;;;;;7.75;4.05;;;;;;;21.61;25.12;99594.50;5115151;28;20040;-62
2022/05/02 01:46:07;;;;;;;5.63;3.63;;;;;;;21.60;25.14;99593.66;5115251;28;20032;-63
2022/05/02 01:48:33;;;;;;;7.00;3.63;;;;;;;21.59;25.29;99591.97;5112555;28;20048;-63
2022/05/02 01:50:59;;;;;;;4.40;2.95;;;;;;;21.58;25.28;99592.16;5114925;28;20036;-63
2022/05/02 01:53:26;;;;;;;6.32;3.85;;;;;;;21.58;25.30;99592.16;5115246;28;20039;-63
2022/05/02 01:55:51;;;;;;;9.80;4.25;;;;;;;21.58;25.30;99592.16;5114675;28;20058;-63
2022/05/02 01:58:17;;;;;;;9.90;4.03;;;;;;;21.59;25.20;99596.53;5115402;28;20066;-63
2022/05/02 02:00:43;;;;;;;8.82;3.67;;;;;;;21.56;25.26;99597.72;5114745;28;20035;-64
2022/05/02 02:03:09;;;;;;;8.95;4.90;;;;;;;21.56;25.11;99595.03;5115406;28;20114;-64
2022/05/02 02:05:50;;;;;;;10.77;3.83;;;;;;;21.56;25.24;99597.72;5110262;28;20119;-64
2022/05/02 02:08:20;;;;;;;10.25;4.32;;;;;;;21.56;25.33;99603.09;5114576;28;20092;-63
2022/05/02 02:10:46;;;;;;;6.75;4.03;;;;;;;21.56;25.40;99600.41;5114842;28;20028;-63
2022/05/02 02:13:13;;;;;;;9.40;4.30;;;;;;;21.55;25.54;99598.75;5114558;28;20182;-65
2022/05/02 02:15:39;;;;;;;8.77;3.80;;;;;;;21.54;25.21;99599.78;5114666;28;20031;-64
2022/05/02 02:18:05;;;;;;;6.00;4.28;;;;;;;21.54;25.25;99602.50;5114758;28;20486;-63
2022/05/02 02:20:31;;;;;;;9.98;4.00;;;;;;;21.54;25.36;99598.94;5112104;28;20031;-63
2022/05/02 02:22:57;;;;;;;8.10;4.10;;;;;;;21.54;25.29;99599.78;5113257;28;20085;-63
2022/05/02 02:25:23;;;;;;;6.05;3.55;;;;;;;21.55;25.17;99608.69;5114446;28;20517;-64
2022/05/02 02:27:48;;;;;;;7.28;4.20;;;;;;;21.54;25.21;99598.94;5114218;28;20054;-64
2022/05/02 02:30:19;;;;;;;8.68;3.97;;;;;;;21.53;25.38;99606.19;5114017;28;20055;-64
2022/05/02 02:32:44;;;;;;;5.00;3.57;;;;;;;21.52;25.40;99604.53;5114457;28;20482;-64
2022/05/02 02:35:10;;;;;;;8.70;3.92;;;;;;;21.53;25.43;99599.97;5114348;28;20385;-64
2022/05/02 02:37:35;;;;;;;6.50;3.90;;;;;;;21.54;25.48;99598.94;5111950;27;20414;-63
2022/05/02 02:40:01;;;;;;;8.82;4.50;;;;;;;21.53;25.50;99598.13;5114344;28;20030;-64
2022/05/02 02:42:26;;;;;;;8.48;3.92;;;;;;;21.52;25.44;99601.00;5114119;28;20027;-64
2022/05/02 02:44:52;;;;;;;13.13;4.22;;;;;;;21.52;25.49;99604.53;5114129;28;20031;-64
2022/05/02 02:47:18;;;;;;;7.85;3.95;;;;;;;21.52;25.43;99596.47;5112812;28;20028;-65
2022/05/02 02:49:43;;;;;;;6.47;3.28;;;;;;;21.51;25.42;99602.88;5114312;28;20041;-65
2022/05/02 02:52:09;;;;;;;9.57;4.32;;;;;;;21.50;25.58;99604.72;5111816;28;20127;-65
2022/05/02 02:54:35;;;;;;;5.57;3.60;;;;;;;21.52;25.64;99611.75;5113767;28;20122;-65
2022/05/02 02:57:01;;;;;;;6.38;3.63;;;;;;;21.52;25.62;99601.84;5113755;28;20035;-65
2022/05/02 02:59:27;;;;;;;8.25;4.40;;;;;;;21.52;25.53;99611.75;5113722;28;20551;-65
2022/05/02 03:01:55;;;;;;;8.25;4.10;;;;;;;21.52;25.53;99607.22;5113550;28;20027;-65
2022/05/02 03:07:05;;;;;;;9.98;3.95;;;;;;;21.53;25.61;99603.50;5114367;28;20114;-65
2022/05/02 03:09:31;;;;;;;9.43;3.97;;;;;;;21.53;25.68;99611.59;5111420;27;20464;-65
2022/05/02 03:11:57;;;;;;;5.95;3.88;;;;;;;21.52;25.43;99607.22;5113438;28;20045;-65
2022/05/02 03:14:23;;;;;;;6.97;3.55;;;;;;;21.52;25.55;99611.75;5114001;28;20027;-65
2022/05/02 03:16:48;;;;;;;8.63;4.10;;;;;;;21.52;25.56;99612.63;5113252;28;20036;-65
2022/05/02 03:19:14;;;;;;;6.90;4.30;;;;;;;21.53;25.75;99616.13;5113660;28;20034;-66
2022/05/02 03:21:39;;;;;;;4.75;4.03;;;;;;;21.53;25.54;99622.34;5113144;28;20024;-64
2022/05/02 03:24:06;;;;;;;8.82;4.32;;;;;;;21.53;25.60;99608.91;5111495;27;20106;-64
2022/05/02 03:26:31;;;;;;;7.28;3.42;;;;;;;21.54;25.66;99610.56;5113209;28;20039;-65
2022/05/02 03:28:57;;;;;;;5.88;3.53;;;;;;;21.54;25.78;99615.09;5113399;28;20035;-65
2022/05/02 03:31:22;;;;;;;7.72;4.20;;;;;;;21.55;25.81;99620.28;5113336;28;20059;-65
2022/05/02 03:33:48;;;;;;;10.10;3.97;;;;;;;21.55;25.87;99616.78;5113536;28;20100;-65
2022/05/02 03:36:13;;;;;;;8.90;3.50;;;;;;;21.56;25.74;99619.25;5094785;28;20506;-66
2022/05/02 03:38:39;;;;;;;6.72;3.20;;;;;;;21.58;25.84;99619.91;5113365;28;20028;-65
2022/05/02 03:41:04;;;;;;;10.70;3.92;;;;;;;21.58;25.90;99621.78;5110301;28;20504;-65
2022/05/02 03:43:32;;;;;;;5.28;3.40;;;;;;;21.60;25.96;99623.28;5113360;28;20032;-65
2022/05/02 03:45:57;;;;;;;10.32;3.78;;;;;;;21.62;26.02;99626.63;5113301;28;20038;-65
2022/05/02 03:48:23;;;;;;;6.78;3.95;;;;;;;21.63;25.94;99616.66;5113325;28;20027;-65
2022/05/02 03:50:48;;;;;;;5.47;4.10;;;;;;;21.64;25.83;99621.88;5113042;28;20406;-65
2022/05/02 03:53:15;;;;;;;6.63;3.92;;;;;;;;;;5113205;28;20099;-65
2022/05/02 03:55:42;;;;;;;7.28;3.97;;;;;;;21.71;26.05;99624.63;5109518;28;20081;-65
2022/05/02 03:58:08;;;;;;;8.68;4.50;;;;;;;21.73;25.89;99633.38;5114251;28;20037;-65
2022/05/02 04:00:35;;;;;;;8.45;4.18;;;;;;;21.74;26.00;99632.34;5117415;28;20106;-65
2022/05/02 04:03:00;;;;;;;6.30;3.47;;;;;;;21.77;25.98;99631.13;5117171;28;20031;-64
2022/05/02 04:05:26;;;;;;;4.55;3.50;;;;;;;21.77;25.92;99625.72;5117319;28;20035;-65
2022/05/02 04:07:52;;;;;;;7.95;4.03;;;;;;;21.82;26.11;99635.91;5117233;28;20398;-64
2022/05/02 04:10:17;;;;;;;4.78;3.40;;;;;;;21.82;26.11;99634.06;5117104;28;20470;-64
2022/05/02 04:12:43;;;;;;;4.90;3.72;;;;;;;21.83;26.14;99633.06;5114912;28;20035;-65
2022/05/02 04:15:09;;;;;;;8.60;3.78;;;;;;;21.84;26.25;99629.31;5116801;28;20525;-64
2022/05/02 04:17:35;;;;;;;7.35;3.83;;;;;;;21.84;26.14;99623.09;5117140;28;20061;-65
2022/05/02 04:20:02;;;;;;;7.05;3.60;;;;;;;21.86;26.10;99626.44;5117082;28;20106;-65
2022/05/02 04:22:28;;;;;;;6.75;4.00;;;;;;;21.89;26.05;99629.56;5116827;28;20031;-65
2022/05/02 04:24:53;;;;;;;5.18;3.47;;;;;;;21.90;26.02;99633.13;5116951;28;20397;-65
2022/05/02 04:27:18;;;;;;;5.55;3.47;;;;;;;21.91;26.11;99635.59;5108027;28;20436;-65
2022/05/02 04:29:44;;;;;;;5.50;3.47;;;;;;;21.93;26.11;99638.94;5096141;28;20056;-65
2022/05/02 04:32:09;;;;;;;11.32;5.28;;;;;;;21.95;26.03;99636.03;5096200;28;20063;-64
2022/05/02 04:34:35;;;;;;;5.35;3.50;;;;;;;21.97;25.99;99635.88;5096405;28;20036;-64
2022/05/02 04:37:00;;;;;;;7.15;3.30;;;;;;;21.99;25.92;99639.19;5096657;28;20391;-64
2022/05/02 04:39:26;;;;;;;5.53;3.70;;;;;;;22.00;25.96;99632.75;5096312;28;20028;-65
2022/05/02 04:41:51;;;;;;;6.70;3.17;;;;;;;22.03;25.81;99635.06;5096504;28;20043;-65
2022/05/02 04:44:17;;;;;;;7.53;3.55;;;;;;;22.04;25.88;99639.44;5096369;28;20032;-64
2022/05/02 04:46:42;;;;;;;4.70;3.10;;;;;;;22.06;25.91;99634.69;5097266;28;20038;-64
2022/05/02 04:49:08;;;;;;;9.38;3.25;;;;;;;22.09;25.86;99631.63;5116246;28;20039;-64
2022/05/02 04:51:33;;;;;;;5.35;3.75;;;;;;;22.10;25.82;99631.41;5116384;28;20164;-64
2022/05/02 04:53:59;;;;;;;9.05;3.67;;;;;;;22.13;25.80;99630.19;5116491;28;20063;-64
2022/05/02 04:56:24;;;;;;;6.18;3.38;;;;;;;22.16;25.77;99635.19;5116228;28;20030;-64
2022/05/02 04:58:50;;;;;;;6.15;3.47;;;;;;;22.20;25.83;99632.97;5116439;28;20096;-64
2022/05/02 05:01:15;;;;;;;5.00;3.08;;;;;;;22.20;25.71;99636.47;5116149;28;20107;-64
2022/05/02 05:03:41;;;;;;;5.47;3.20;;;;;;;22.23;25.71;99630.69;5111411;28;20410;-64
2022/05/02 05:06:07;;;;;;;6.28;4.22;;;;;;;22.27;25.63;99627.63;5115798;28;20027;-64
2022/05/02 05:08:32;;;;;;;7.05;3.30;;;;;;;22.32;25.58;99631.41;5115860;28;20035;-64
2022/05/02 05:11:07;;;;;;;5.10;2.92;;;;;;;22.38;25.46;99637.88;5114737;28;20028;-64
2022/05/02 05:16:20;;;;;;;5.25;3.25;;;;;;;22.42;25.33;99628.41;5116105;28;20038;-64
2022/05/02 05:16:49;;;;;;;6.05;3.22;;;;;;;22.48;25.24;99632.16;5101090;28;20031;-64
2022/05/02 05:19:20;;;;;;;;;;;;;;;22.48;25.34;99634.84;5114072;28;20031;-64
2022/05/02 05:22:18;;;;;;;5.40;3.65;;;;;;;22.56;25.34;99632.00;5115859;28;19927;-64
2022/05/02 05:24:55;;;;;;;5.63;3.15;;;;;;;22.64;25.20;99633.72;5074073;28;20035;-64
2022/05/02 05:27:51;;;;;;;10.50;3.70;;;;;;;22.73;24.85;99632.50;5115453;28;20032;-64
2022/05/02 05:30:21;;;;;;;10.05;4.53;;;;;;;22.82;24.91;99634.03;5115400;28;20051;-64
2022/05/02 05:33:01;;;;;;;5.68;3.85;;;;;;;23.00;24.75;99638.91;5115373;28;20066;-64
2022/05/02 05:36:06;;;;;;;5.65;3.40;;;;;;;23.21;24.81;99630.91;5114083;28;20092;-64
2022/05/02 05:39:10;;;;;;;8.98;3.20;;;;;;;23.46;24.58;99636.63;5115205;28;20027;-64
2022/05/02 05:41:43;;;;;;;5.47;2.85;;;;;;;23.69;24.20;99630.88;5115352;28;20497;-64
2022/05/02 05:44:47;;;;;;;9.60;3.50;;;;;;;23.90;24.23;99639.81;5115207;28;20038;-64
2022/05/02 05:47:31;;;;;;;6.65;2.97;;;;;;;24.05;24.07;99631.56;5114988;28;20059;-65
2022/05/02 05:49:56;;;;;;;6.95;3.17;;;;;;;24.15;24.02;99631.16;5112851;28;20063;-64
2022/05/02 05:52:42;;;;;;;4.03;2.45;;;;;;;24.23;23.85;99633.63;5115011;28;20119;-64
2022/05/02 05:55:33;;;;;;;6.80;2.50;;;;;;;24.32;23.72;99624.28;5100326;28;20048;-65
2022/05/02 05:58:27;;;;;;;5.22;2.45;;;;;;;24.34;23.73;99633.00;5115251;28;20032;-65
2022/05/02 06:01:09;;;;;;;6.03;2.33;;;;;;;24.33;23.48;99617.84;5115014;28;20039;-64
2022/05/02 06:03:44;;;;;;;4.32;1.92;;;;;;;24.34;23.85;99621.38;5114794;28;20462;-65
2022/05/02 06:06:14;;;;;;;2.92;1.98;;;;;;;24.31;23.67;99628.03;5112751;28;20475;-65
2022/05/02 06:08:40;;;;;;;4.90;2.47;;;;;;;24.28;24.01;99625.75;5115005;28;20122;-65
2022/05/02 06:11:06;;;;;;;4.35;1.85;;;;;;;24.27;23.81;99623.22;5115100;28;20115;-65
2022/05/02 06:13:33;;;;;;;3.17;1.77;;;;;;;24.29;23.81;99626.56;5114829;28;20038;-64
2022/05/02 06:18:48;;;;;;;5.93;1.85;;;;;;;24.28;23.93;99620.34;5115034;28;20066;-65
2022/05/02 06:21:20;;;;;;;4.07;1.67;;;;;;;24.31;23.98;99621.78;5114358;28;20385;-66
2022/05/02 06:23:50;;;;;;;3.85;2.00;;;;;;;24.30;23.50;99612.84;5113476;28;20490;-63
2022/05/02 06:26:17;;;;;;;4.00;1.60;;;;;;;24.28;23.55;99612.22;5114459;28;20041;-64
2022/05/02 06:28:44;;;;;;;1.73;1.15;;;;;;;24.30;23.69;99615.56;5114365;28;20265;-65
2022/05/02 06:31:21;;;;;;;2.22;1.42;;;;;;;24.27;23.43;99607.84;5113712;28;20107;-63
2022/05/02 06:33:49;;;;;;;3.78;1.77;;;;;;;24.27;23.58;99607.84;5113929;28;20159;-64
2022/05/02 06:36:20;;;;;;;3.45;1.65;;;;;;;24.27;23.47;99612.41;5113772;28;20096;-64
2022/05/02 06:38:52;;;;;;;8.70;1.67;;;;;;;24.27;23.76;99607.00;5113964;28;20081;-63
2022/05/02 06:41:42;;;;;;;4.28;1.70;;;;;;;24.29;23.63;99611.19;5114105;28;20028;-64
2022/05/02 06:44:42;;;;;;;6.37;1.87;;;;;;;24.27;23.41;99602.44;5113650;28;20031;-64
2022/05/02 06:47:49;;;;;;;1.80;1.02;;;;;;;24.25;22.82;99596.41;5113707;28;20520;-63
2022/05/02 06:50:20;;;;;;;2.80;1.27;;;;;;;24.23;23.34;99606.59;5113884;28;20110;-64
2022/05/02 06:52:54;;;;;;;5.20;1.30;;;;;;;24.24;22.73;99597.44;5114357;28;20030;-64
2022/05/02 06:55:20;;;;;;;2.58;1.40;;;;;;;24.24;22.74;99600.16;5095384;28;20087;-64
2022/05/02 06:58:22;;;;;;;1.85;1.20;;;;;;;24.25;22.88;99599.13;5111643;28;20036;-64
2022/05/02 07:01:21;;;;;;;2.75;1.30;;;;;;;24.24;22.80;99592.03;5093166;28;20036;-64
2022/05/02 07:04:08;;;;;;;7.88;1.90;;;;;;;24.25;22.58;99596.41;5093399;28;20089;-65
2022/05/02 07:06:55;;;;;;;5.90;2.00;;;;;;;24.25;22.92;99590.19;5093240;28;20036;-64
2022/05/02 07:09:41;;;;;;;4.63;2.00;;;;;;;24.26;22.80;99598.06;5093578;28;20036;-65
2022/05/02 07:12:13;;;;;;;6.55;2.72;;;;;;;24.27;22.33;99594.34;5078805;28;20055;-65
2022/05/02 07:14:53;;;;;;;4.75;2.35;;;;;;;24.29;22.27;99584.16;5106316;28;20122;-64
2022/05/02 07:17:36;;;;;;;4.00;1.95;;;;;;;24.29;22.32;99594.97;5113638;28;20035;-64
2022/05/02 07:20:08;;;;;;;6.38;2.28;;;;;;;24.32;22.35;99586.44;5113378;28;20033;-64
2022/05/02 07:22:42;;;;;;;3.08;1.98;;;;;;;24.38;22.37;99596.38;5113098;28;20035;-64
2022/05/02 07:25:16;;;;;;;4.63;1.95;;;;;;;24.42;22.33;99590.56;5113214;28;20528;-64
2022/05/02 07:27:53;;;;;;;5.68;2.10;;;;;;;24.47;22.34;99590.78;5113275;28;20034;-65
2022/05/02 07:30:23;;;;;;;3.60;1.90;;;;;;;24.46;21.95;99598.03;5098583;28;20044;-64
2022/05/02 07:32:50;;;;;;;5.50;1.90;;;;;;;24.48;22.05;99597.84;5092161;28;20034;-64
2022/05/02 07:35:17;;;;;;;2.97;1.25;;;;;;;24.49;21.57;99589.50;5092659;28;20085;-64
2022/05/02 07:37:43;;;;;;;3.70;1.85;;;;;;;24.50;21.62;99593.03;5093042;28;20085;-64
2022/05/02 07:40:12;;;;;;;3.05;1.42;;;;;;;24.50;22.21;99585.78;5092938;28;20624;-64
2022/05/02 07:42:39;;;;;;;2.40;1.20;;;;;;;24.54;22.11;99583.47;5092729;28;20482;-64
2022/05/02 07:45:10;;;;;;;5.13;1.60;;;;;;;24.57;21.90;99590.31;5099982;28;20039;-63
2022/05/02 07:47:36;;;;;;;3.55;1.40;;;;;;;24.53;21.73;99588.06;5112824;28;20042;-63
2022/05/02 07:50:04;;;;;;;2.72;1.58;;;;;;;24.52;21.23;99588.25;5113286;28;20058;-63
2022/05/02 07:52:30;;;;;;;9.55;1.85;;;;;;;24.51;21.33;99583.88;5112677;28;20111;-64
2022/05/02 07:54:58;;;;;;;1.98;0.95;;;;;;;24.52;21.35;99583.69;5113230;28;20110;-64
2022/05/02 07:57:24;;;;;;;3.63;1.85;;;;;;;24.52;21.61;99580.13;5113074;28;20469;-64
2022/05/02 07:59:54;;;;;;;2.58;1.25;;;;;;;24.54;22.04;99580.75;5113217;28;20034;-64
2022/05/02 08:02:22;;;;;;;2.35;1.23;;;;;;;24.59;21.85;99583.66;5107793;28;20072;-64
2022/05/02 08:04:49;;;;;;;2.85;0.93;;;;;;;24.64;21.88;99586.56;5113041;28;20039;-64
2022/05/02 08:07:34;;;;;;;3.47;1.10;;;;;;;24.70;21.69;99586.78;5112425;28;20088;-65
2022/05/02 08:10:16;;;;;;;2.33;1.17;;;;;;;24.74;21.44;99585.31;5112849;28;20037;-65
2022/05/02 08:12:51;;;;;;;2.55;1.20;;;;;;;24.75;20.97;99581.56;5112621;28;20402;-64
2022/05/02 08:15:32;;;;;;;2.15;1.20;;;;;;;24.77;21.77;99574.91;5113069;28;20371;-64
2022/05/02 08:18:35;;;;;;;3.58;1.30;;;;;;;24.82;21.47;99577.81;5094824;28;20055;-64
2022/05/02 08:21:18;;;;;;;1.83;1.00;;;;;;;24.85;21.53;99571.13;5092573;28;20036;-64
2022/05/02 08:29:53;;;;;;;2.65;1.10;;;;;;;24.91;20.96;99551.34;5101304;28;20167;-65
2022/05/02 08:32:22;;;;;;;1.30;0.80;;;;;;;24.94;20.90;99559.00;5112589;28;20031;-65
2022/05/02 08:35:09;;;;;;;2.00;0.93;;;;;;;24.96;21.06;99559.63;5112775;28;20039;-64
2022/05/02 08:37:46;;;;;;;1.98;1.00;;;;;;;25.01;20.76;99563.56;5113281;28;20036;-64
2022/05/02 08:40:34;;;;;;;4.15;1.00;;;;;;;25.04;20.83;99560.44;5113065;28;20028;-65
2022/05/02 08:43:37;;;;;;;1.80;1.02;;;;;;;25.06;21.03;99559.16;5112391;28;20092;-65
2022/05/02 08:46:39;;;;;;;1.25;0.90;;;;;;;25.10;21.54;99557.69;5116508;28;20091;-65
2022/05/02 08:49:35;;;;;;;3.58;1.45;;;;;;;25.13;21.21;99559.97;5116565;28;20028;-65
2022/05/02 08:52:00;;;;;;;2.10;0.88;;;;;;;25.13;21.20;99551.84;5116473;28;20386;-64
2022/05/02 08:54:44;;;;;;;1.65;0.80;;;;;;;25.14;20.58;99555.38;5116789;28;20043;-65
2022/05/02 08:57:53;;;;;;;2.22;1.08;;;;;;;25.14;20.94;99544.56;5116270;28;20032;-65
2022/05/02 09:00:47;;;;;;;1.45;0.82;;;;;;;25.15;20.91;99543.50;5059159;28;20043;-64
2022/05/02 09:03:13;;;;;;;2.78;1.05;;;;;;;25.18;20.96;99532.25;5116173;28;20482;-65
2022/05/02 09:05:48;;;;;;;4.63;1.17;;;;;;;25.22;21.19;99528.03;5115685;28;20040;-65
2022/05/02 09:08:48;;;;;;;1.42;1.05;;;;;;;25.25;21.42;99522.19;5116352;28;20054;-65
2022/05/02 09:11:39;;;;;;;1.33;0.70;;;;;;;25.27;21.30;99527.41;5115419;28;20042;-65
2022/05/02 09:14:29;;;;;;;2.03;1.42;;;;;;;25.27;21.14;99511.97;5115825;28;20031;-65
2022/05/02 09:17:20;;;;;;;2.47;1.10;;;;;;;25.26;20.84;99509.50;5115710;28;20402;-65
2022/05/02 09:20:22;;;;;;;2.47;1.27;;;;;;;25.25;20.78;99522.19;5116016;28;20043;-65
2022/05/02 09:23:17;;;;;;;4.10;1.00;;;;;;;25.26;21.01;99523.03;5115566;28;20027;-65
2022/05/02 09:26:07;;;;;;;7.65;1.20;;;;;;;25.25;20.63;99516.78;5115664;28;20490;-65
2022/05/02 09:28:38;;;;;;;2.38;0.93;;;;;;;25.23;20.41;99508.03;5114521;28;20092;-64
2022/05/02 09:31:23;;;;;;;2.88;1.58;;;;;;;25.21;20.76;99501.19;5114881;28;20128;-65
2022/05/02 09:34:18;;;;;;;1.38;0.80;;;;;;;25.18;20.20;99516.00;5115635;28;20160;-64
2022/05/02 09:36:58;;;;;;;0.88;0.63;;;;;;;25.11;19.89;99502.50;5095061;28;20482;-65
2022/05/02 09:39:31;;;;;;;3.43;0.90;;;;;;;25.09;20.44;99501.88;5101150;28;20038;-63
2022/05/02 09:42:34;;;;;;;2.85;1.30;;;;;;;25.04;19.92;99496.28;5093923;28;20348;-63
2022/05/02 09:51:07;;;;;;;3.58;1.80;;;;;;;24.91;19.93;99491.81;5113329;28;20064;-63
2022/05/02 09:53:55;;;;;;;6.78;1.83;;;;;;;24.90;20.24;99495.56;5113522;28;20494;-63
2022/05/02 09:56:38;;;;;;;10.75;2.70;;;;;;;24.87;20.00;99489.72;5102765;28;20035;-64
2022/05/02 09:59:30;;;;;;;6.70;2.47;;;;;;;24.87;19.89;99482.44;5093996;28;20494;-63
2022/05/02 10:02:08;;;;;;;8.35;2.47;;;;;;;24.88;20.02;99486.81;5088889;28;20036;-64
2022/05/02 10:04:47;;;;;;;8.82;2.83;;;;;;;24.88;20.42;99475.13;5110136;28;20371;-63
2022/05/02 10:07:18;;;;;;;9.07;3.10;;;;;;;24.90;19.95;99464.94;5106756;27;20032;-63
2022/05/02 10:10:18;;;;;;;5.47;2.42;;;;;;;24.90;19.87;99457.66;5093887;28;20028;-64
2022/05/02 10:13:10;;;;;;;4.72;1.92;;;;;;;24.89;19.65;99447.03;5034171;28;20042;-64
2022/05/02 10:16:18;;;;;;;8.18;2.75;;;;;;;24.86;19.65;99459.13;5093245;28;20066;-64
2022/05/02 10:18:51;;;;;;;13.75;3.67;;;;;;;24.87;20.29;99449.13;5049613;28;20025;-64
2022/05/02 10:21:23;;;;;;;7.10;2.40;;;;;;;24.92;20.26;99455.56;5050311;28;20024;-64
2022/05/02 10:24:19;;;;;;;5.82;2.60;;;;;;;24.94;20.62;99448.03;5075594;28;20126;-64
2022/05/02 10:27:11;;;;;;;5.97;2.90;;;;;;;24.97;20.57;99442.19;5109119;28;20482;-64
2022/05/02 10:29:49;;;;;;;5.78;2.03;;;;;;;25.02;20.33;99446.13;5101137;28;20055;-64
2022/05/02 10:32:24;;;;;;;8.98;2.55;;;;;;;25.06;20.81;99442.78;5110948;27;20504;-65
2022/05/02 10:34:52;;;;;;;7.50;3.00;;;;;;;25.11;20.80;99433.97;5093149;28;20039;-65
2022/05/02 10:37:27;;;;;;;10.27;3.25;;;;;;;25.15;20.87;99435.22;5093849;28;20039;-64
2022/05/02 10:40:04;;;;;;;9.82;2.72;;;;;;;25.18;21.65;99434.78;5093021;28;20495;-64
2022/05/02 10:42:31;;;;;;;7.85;2.45;;;;;;;25.23;21.25;99434.13;5098408;27;20551;-64
2022/05/02 10:45:07;;;;;;;7.55;3.25;;;;;;;25.26;21.39;99422.84;5096613;28;20042;-64
2022/05/02 10:47:46;;;;;;;6.32;2.55;;;;;;;25.28;21.56;99418.88;5093106;28;20042;-64
2022/05/02 10:50:25;;;;;;;8.73;2.63;;;;;;;25.30;21.54;99415.91;5092986;28;20028;-65
2022/05/02 10:53:07;;;;;;;4.40;2.33;;;;;;;25.32;21.19;99415.72;5098699;28;20120;-64
2022/05/02 10:55:37;;;;;;;11.38;3.38;;;;;;;25.35;21.60;99412.56;5102112;27;20125;-65
2022/05/02 10:58:11;;;;;;;6.43;2.47;;;;;;;25.38;21.66;99404.84;5093585;28;20040;-64
2022/05/02 11:01:05;;;;;;;6.70;2.47;;;;;;;25.39;21.72;99401.06;5098730;28;20261;-64
2022/05/02 11:04:03;;;;;;;6.40;2.72;;;;;;;25.42;21.68;99402.53;5085167;28;20042;-64
2022/05/02 11:06:56;;;;;;;5.75;2.25;;;;;;;25.43;21.69;99398.78;5056603;28;20028;-65
2022/05/02 11:09:40;;;;;;;3.92;1.92;;;;;;;25.42;21.95;99391.69;5098149;27;20031;-64
2022/05/02 11:12:13;;;;;;;7.40;2.22;;;;;;;25.43;22.01;99393.34;5106644;28;20030;-63
2022/05/02 11:14:52;;;;;;;7.43;2.15;;;;;;;25.44;21.62;99389.59;5092685;28;20071;-64
2022/05/02 11:17:36;;;;;;;7.03;2.67;;;;;;;25.45;21.69;99377.72;5092426;28;20107;-65
2022/05/02 11:20:42;;;;;;;6.63;2.90;;;;;;;25.45;21.74;99369.59;5109005;28;20036;-64
2022/05/02 11:23:32;;;;;;;5.03;2.25;;;;;;;25.46;21.59;99362.28;5091086;28;20066;-64
2022/05/02 11:26:27;;;;;;;6.38;1.92;;;;;;;25.46;21.52;99360.41;5092440;28;20036;-65
2022/05/02 11:29:07;;;;;;;2.38;1.60;;;;;;;25.47;21.44;99361.22;5108312;28;21485;-63
2022/05/02 11:31:45;;;;;;;5.90;1.80;;;;;;;25.48;21.61;99361.03;5092416;28;20074;-64
2022/05/02 11:34:32;;;;;;;5.18;1.80;;;;;;;25.49;20.96;99361.84;5097348;28;20501;-63
2022/05/02 11:36:59;;;;;;;4.13;2.05;;;;;;;25.50;21.41;99355.38;5099336;28;20527;-64
2022/05/02 11:40:10;;;;;;;4.40;1.98;;;;;;;25.52;21.65;99348.66;5106138;28;20106;-64
2022/05/02 11:42:40;;;;;;;;;;;;;;;25.48;21.63;99343.94;5049065;28;20526;-64
2022/05/02 11:45:17;;;;;;;3.20;1.48;;;;;;;25.54;21.28;99348.47;5093173;28;20282;-63
2022/05/02 11:48:01;;;;;;;3.55;1.55;;;;;;;25.58;21.52;99344.25;5092051;28;20039;-64
2022/05/02 11:50:28;;;;;;;3.92;1.50;;;;;;;25.62;21.60;99344.63;5107256;28;21808;-64
2022/05/02 11:52:56;;;;;;;6.78;2.10;;;;;;;25.64;21.68;99342.53;5095411;28;20038;-63
2022/05/02 11:55:30;;;;;;;6.25;1.80;;;;;;;25.65;21.57;99328.75;5110503;28;20035;-63
2022/05/02 11:58:09;;;;;;;3.78;1.63;;;;;;;25.68;21.62;99330.16;5095251;28;20043;-63
2022/05/02 12:00:37;;;;;;;2.92;1.65;;;;;;;25.71;21.79;99332.44;5108057;28;20034;-64
2022/05/02 12:03:16;;;;;;;2.67;1.42;;;;;;;25.72;21.98;99328.69;5105957;28;20036;-64
2022/05/02 12:06:04;;;;;;;15.35;2.97;;;;;;;25.74;22.32;99329.28;5103401;28;20430;-63
2022/05/02 12:08:43;;;;;;;4.93;1.70;;;;;;;25.71;21.92;99316.19;5087697;28;20460;-65
2022/05/02 12:11:11;;;;;;;2.47;1.50;;;;;;;25.71;22.08;99314.31;5097342;28;20024;-64
2022/05/02 12:13:45;;;;;;;4.20;2.05;;;;;;;25.69;22.33;99331.81;5094189;28;20058;-66
2022/05/02 12:16:17;;;;;;;3.17;2.00;;;;;;;25.68;22.80;99324.75;5097313;28;20063;-65
2022/05/02 12:18:55;;;;;;;12.18;2.83;;;;;;;25.66;22.66;99316.03;5104161;28;20035;-65
2022/05/02 12:26:43;;;;;;;2.80;1.80;;;;;;;25.64;22.11;99312.72;5704227;22;20055;-64
2022/05/02 12:29:15;;;;;;;5.03;1.90;;;;;;;25.62;21.92;99312.94;5076272;28;20036;-65